Time;durP1;ratioP1;P1;durP2;ratioP2;P2;SDS_P1;SDS_P2;PMS_P1;PMS_P2;Temp;Humidity;BMP_temperature;BMP_pressure;BME280_temperature;BME280_humidity;BME280_pressure;Samples;Min_cycle;Max_cycle;Signal;HPM_P1;HPM_P2
2021/09/29 00:01:47;;;;;;;4.35;2.30;;;13.00;99.90;;;;;;6332859;22;20029;-81
2021/09/29 00:04:16;;;;;;;3.50;1.35;;;12.90;99.90;;;;;;6319707;22;20019;-79
2021/09/29 00:06:43;;;;;;;4.85;1.52;;;12.90;99.90;;;;;;6294566;22;20021;-80
2021/09/29 00:09:12;;;;;;;1.42;1.20;;;12.90;99.90;;;;;;6330803;22;20792;-78
2021/09/29 00:11:40;;;;;;;4.03;1.10;;;12.80;99.90;;;;;;6268533;22;20018;-78
2021/09/29 00:14:10;;;;;;;5.07;1.27;;;12.80;99.90;;;;;;6292470;22;20022;-79
2021/09/29 00:16:39;;;;;;;3.90;1.27;;;12.70;99.90;;;;;;6268728;22;20019;-79
2021/09/29 00:19:08;;;;;;;4.97;1.02;;;12.70;99.90;;;;;;6324221;22;20018;-80
2021/09/29 00:21:40;;;;;;;2.85;1.00;;;12.70;99.90;;;;;;6332674;22;20011;-79
2021/09/29 00:24:09;;;;;;;3.75;1.02;;;12.80;99.90;;;;;;6320200;22;20015;-80
2021/09/29 00:26:38;;;;;;;1.63;1.55;;;12.60;99.90;;;;;;6354491;22;20021;-80
2021/09/29 00:29:06;;;;;;;3.45;1.25;;;12.50;99.90;;;;;;6326678;22;20019;-79
2021/09/29 00:31:36;;;;;;;2.35;0.90;;;12.50;99.90;;;;;;6349272;22;20011;-80
2021/09/29 00:34:11;;;;;;;4.82;1.10;;;12.50;99.90;;;;;;6294784;22;20348;-79
2021/09/29 00:36:45;;;;;;;3.53;1.50;;;12.40;99.90;;;;;;6319514;22;20015;-78
2021/09/29 00:39:13;;;;;;;1.25;0.90;;;12.40;99.90;;;;;;6359759;22;20011;-79
2021/09/29 00:41:45;;;;;;;1.20;1.10;;;12.40;99.90;;;;;;6332043;22;20015;-81
2021/09/29 00:44:13;;;;;;;2.85;1.33;;;12.40;99.90;;;;;;6350596;22;20041;-77
2021/09/29 00:46:42;;;;;;;0.80;0.80;;;12.30;99.90;;;;;;6296246;22;20022;-79
2021/09/29 00:49:12;;;;;;;3.22;1.00;;;12.30;99.90;;;;;;6269067;22;20019;-80
2021/09/29 00:51:43;;;;;;;2.13;1.10;;;12.30;99.90;;;;;;6305466;22;20014;-79
2021/09/29 00:54:12;;;;;;;7.00;1.52;;;12.30;99.90;;;;;;6295693;22;20015;-80
2021/09/29 00:56:40;;;;;;;6.53;1.02;;;12.20;99.90;;;;;;6321837;22;20018;-79
2021/09/29 00:59:08;;;;;;;3.25;0.90;;;12.20;99.90;;;;;;6349878;22;20453;-80
2021/09/29 01:01:36;;;;;;;3.15;1.20;;;12.20;99.90;;;;;;6321646;22;20021;-80
2021/09/29 01:04:05;;;;;;;1.08;0.73;;;12.10;99.90;;;;;;6332782;22;20030;-79
2021/09/29 01:06:43;;;;;;;1.88;0.95;;;12.10;99.90;;;;;;6323979;22;20011;-80
2021/09/29 01:09:24;;;;;;;1.23;1.00;;;12.10;99.90;;;;;;6323692;22;20022;-78
2021/09/29 01:12:09;;;;;;;2.33;1.02;;;12.20;99.90;;;;;;6308202;22;20021;-80
2021/09/29 01:15:05;;;;;;;6.35;1.35;;;12.10;99.90;;;;;;6319697;22;20018;-80
2021/09/29 01:17:41;;;;;;;0.98;0.80;;;12.10;99.90;;;;;;6299151;22;20021;-80
2021/09/29 01:20:12;;;;;;;3.08;1.05;;;12.10;99.90;;;;;;6362307;22;20007;-81
2021/09/29 01:23:03;;;;;;;1.23;0.80;;;12.10;99.90;;;;;;6296537;22;20033;-80
2021/09/29 01:25:56;;;;;;;4.07;1.70;;;12.00;99.90;;;;;;6352194;22;20466;-77
2021/09/29 01:28:33;;;;;;;0.88;0.70;;;12.00;99.90;;;;;;6256133;22;20022;-81
2021/09/29 01:31:02;;;;;;;1.05;0.95;;;12.00;99.90;;;;;;6295503;22;20033;-78
2021/09/29 01:33:33;;;;;;;1.25;1.00;;;12.00;99.90;;;;;;6358947;22;20025;-78
2021/09/29 01:36:03;;;;;;;0.90;0.90;;;12.00;99.90;;;;;;6349601;22;20030;-79
2021/09/29 01:38:34;;;;;;;1.17;1.07;;;12.00;99.90;;;;;;6349287;22;20019;-78
2021/09/29 01:41:02;;;;;;;2.28;1.10;;;12.00;99.90;;;;;;6269603;22;20368;-78
2021/09/29 01:43:33;;;;;;;0.88;0.88;;;12.00;99.90;;;;;;6320160;22;20022;-79
2021/09/29 01:46:02;;;;;;;2.13;1.00;;;12.00;99.90;;;;;;6330589;22;20021;-78
2021/09/29 01:48:30;;;;;;;3.60;0.95;;;11.90;99.90;;;;;;6331633;22;20018;-79
2021/09/29 01:51:00;;;;;;;1.35;1.10;;;11.90;99.90;;;;;;6296107;22;20019;-78
2021/09/29 01:53:33;;;;;;;2.67;1.10;;;11.90;99.90;;;;;;6324719;22;20029;-79
2021/09/29 01:56:01;;;;;;;1.25;1.13;;;11.80;99.90;;;;;;6335800;22;20019;-79
2021/09/29 01:58:31;;;;;;;1.27;1.20;;;11.80;99.90;;;;;;6355002;22;20025;-79
2021/09/29 02:01:01;;;;;;;4.35;1.55;;;11.80;99.90;;;;;;6299002;22;20018;-79
2021/09/29 02:03:29;;;;;;;1.73;1.52;;;11.80;99.90;;;;;;6334305;22;20014;-79
2021/09/29 02:05:58;;;;;;;1.60;1.40;;;11.80;99.90;;;;;;6324727;22;20036;-80
2021/09/29 02:08:30;;;;;;;2.33;1.75;;;11.80;99.90;;;;;;6325369;22;20690;-80
2021/09/29 02:10:58;;;;;;;5.43;2.20;;;11.80;99.90;;;;;;6335533;22;20019;-80
2021/09/29 02:13:30;;;;;;;3.25;1.95;;;11.80;99.90;;;;;;6364826;22;20025;-80
2021/09/29 02:15:58;;;;;;;7.35;2.50;;;11.80;99.90;;;;;;6324587;22;20019;-80
2021/09/29 02:18:27;;;;;;;5.80;2.95;;;11.80;99.90;;;;;;6298293;22;20015;-77
2021/09/29 02:20:55;;;;;;;6.75;2.30;;;11.80;99.90;;;;;;6361828;22;20799;-78
2021/09/29 02:23:25;;;;;;;6.00;2.63;;;11.80;99.90;;;;;;6296655;22;20015;-80
2021/09/29 02:25:53;;;;;;;5.35;2.88;;;11.80;99.90;;;;;;6334969;22;20033;-78
2021/09/29 02:28:22;;;;;;;3.70;2.22;;;11.80;99.90;;;;;;6271384;22;20025;-77
2021/09/29 02:30:51;;;;;;;4.80;2.28;;;11.70;99.90;;;;;;6322400;22;20019;-80
2021/09/29 02:33:19;;;;;;;4.82;3.10;;;11.70;99.90;;;;;;6295793;22;20017;-80
2021/09/29 02:35:50;;;;;;;8.18;2.97;;;11.70;99.90;;;;;;6354391;22;20019;-78
2021/09/29 02:38:18;;;;;;;5.38;2.58;;;11.70;99.90;;;;;;6326009;22;20015;-78
2021/09/29 02:40:46;;;;;;;5.90;3.20;;;11.60;99.90;;;;;;6333383;22;20030;-78
2021/09/29 02:43:14;;;;;;;4.70;2.50;;;11.60;99.90;;;;;;6361344;22;20021;-81
2021/09/29 02:45:45;;;;;;;6.55;2.53;;;11.60;99.90;;;;;;6351780;22;20017;-78
2021/09/29 02:48:14;;;;;;;4.20;3.20;;;11.60;99.90;;;;;;6352555;22;20022;-79
2021/09/29 02:50:46;;;;;;;3.97;2.28;;;11.50;99.90;;;;;;6296122;22;20028;-77
2021/09/29 02:53:14;;;;;;;3.97;3.10;;;11.50;99.90;;;;;;6321613;22;20018;-81
2021/09/29 02:55:43;;;;;;;6.60;2.40;;;11.50;99.90;;;;;;6332502;22;20019;-80
2021/09/29 02:58:14;;;;;;;4.65;1.95;;;11.50;99.90;;;;;;6303833;22;20018;-80
2021/09/29 03:00:41;;;;;;;4.90;1.90;;;11.40;99.90;;;;;;6296927;22;20016;-78
2021/09/29 03:03:11;;;;;;;3.47;2.08;;;11.40;99.90;;;;;;6298863;22;20011;-80
2021/09/29 03:05:40;;;;;;;2.83;2.17;;;11.40;99.90;;;;;;6299001;22;20011;-79
2021/09/29 03:08:09;;;;;;;5.72;2.25;;;11.40;99.90;;;;;;6237335;22;20019;-78
2021/09/29 03:10:38;;;;;;;2.75;2.05;;;11.40;99.90;;;;;;6262916;22;20022;-79
2021/09/29 03:13:09;;;;;;;3.05;1.75;;;11.40;99.90;;;;;;6285556;22;20025;-81
2021/09/29 03:15:38;;;;;;;3.70;2.40;;;11.40;99.90;;;;;;6288843;22;20015;-78
2021/09/29 03:18:08;;;;;;;4.88;3.22;;;11.40;99.90;;;;;;6296528;22;20011;-77
2021/09/29 03:20:38;;;;;;;7.68;2.60;;;11.40;99.90;;;;;;6298957;22;20018;-78
2021/09/29 03:23:06;;;;;;;7.05;3.08;;;11.30;99.90;;;;;;6260928;22;20024;-78
2021/09/29 03:25:36;;;;;;;5.78;2.28;;;11.30;99.90;;;;;;6261025;22;20579;-77
2021/09/29 03:28:05;;;;;;;7.25;2.92;;;11.30;99.90;;;;;;6289247;22;20012;-82
2021/09/29 03:30:34;;;;;;;4.18;1.90;;;11.30;99.90;;;;;;6288589;22;20034;-76
2021/09/29 03:33:06;;;;;;;2.92;2.25;;;11.20;99.90;;;;;;6235695;22;20022;-79
2021/09/29 03:35:35;;;;;;;6.93;2.40;;;11.20;99.90;;;;;;6289657;22;20012;-80
2021/09/29 03:38:03;;;;;;;3.22;1.95;;;11.20;99.90;;;;;;6271822;22;20034;-80
2021/09/29 03:40:32;;;;;;;13.45;2.47;;;11.20;99.90;;;;;;6297158;22;20015;-80
2021/09/29 03:43:00;;;;;;;10.60;2.50;;;11.10;99.90;;;;;;6260883;22;20030;-78
2021/09/29 03:45:28;;;;;;;3.30;1.98;;;11.10;99.90;;;;;;6259544;22;20016;-78
2021/09/29 03:47:56;;;;;;;4.85;2.20;;;11.10;99.90;;;;;;6260164;22;20032;-78
2021/09/29 03:50:25;;;;;;;2.83;2.00;;;11.00;99.90;;;;;;6284966;22;20026;-80
2021/09/29 03:52:53;;;;;;;4.20;2.25;;;11.00;99.90;;;;;;6288677;22;20513;-80
2021/09/29 03:55:22;;;;;;;3.00;1.80;;;11.00;99.90;;;;;;6259406;22;20028;-79
2021/09/29 03:57:50;;;;;;;5.00;2.15;;;11.00;99.90;;;;;;6293788;22;20012;-79
2021/09/29 04:00:18;;;;;;;4.90;1.95;;;10.90;99.90;;;;;;6284483;22;20016;-79
2021/09/29 04:02:51;;;;;;;2.90;1.85;;;10.90;99.90;;;;;;6286971;22;20020;-81
2021/09/29 04:06:13;;;;;;;5.72;1.92;;;10.90;99.90;;;;;;6263679;22;20022;-78
2021/09/29 04:08:47;;;;;;;2.83;2.22;;;10.90;99.90;;;;;;6266730;22;20022;-78
2021/09/29 04:11:17;;;;;;;8.98;2.70;;;10.80;99.90;;;;;;6285962;22;20015;-78
2021/09/29 04:13:45;;;;;;;4.78;2.90;;;10.80;99.90;;;;;;6298535;22;20016;-79
2021/09/29 04:16:14;;;;;;;4.05;1.75;;;10.80;99.90;;;;;;6296904;22;20024;-78
2021/09/29 04:18:42;;;;;;;5.22;2.47;;;10.70;99.90;;;;;;6261937;22;20018;-78
2021/09/29 04:21:11;;;;;;;6.03;2.47;;;10.70;99.90;;;;;;6290116;22;20012;-78
2021/09/29 04:23:41;;;;;;;3.00;2.03;;;10.70;99.90;;;;;;6262802;22;20028;-78
2021/09/29 04:26:12;;;;;;;3.30;2.00;;;10.70;99.90;;;;;;6287483;22;20022;-79
2021/09/29 04:28:40;;;;;;;7.45;2.85;;;10.70;99.90;;;;;;6292826;22;20262;-79
2021/09/29 04:31:08;;;;;;;4.30;2.10;;;10.60;99.90;;;;;;6289527;22;20026;-80
2021/09/29 04:33:37;;;;;;;8.20;4.18;;;10.60;99.90;;;;;;6237255;22;20012;-80
2021/09/29 04:36:06;;;;;;;6.18;2.22;;;10.60;99.90;;;;;;6273163;22;20019;-79
2021/09/29 04:38:33;;;;;;;7.80;2.28;;;10.50;99.90;;;;;;6237478;22;20022;-80
2021/09/29 04:41:02;;;;;;;6.75;2.65;;;10.50;99.90;;;;;;6298830;22;20021;-79
2021/09/29 04:43:30;;;;;;;9.85;2.88;;;10.50;99.90;;;;;;6289435;22;20030;-80
2021/09/29 04:45:58;;;;;;;2.90;2.00;;;10.50;99.90;;;;;;6263692;22;20048;-79
2021/09/29 04:48:27;;;;;;;6.18;2.47;;;10.40;99.90;;;;;;6295766;22;20019;-79
2021/09/29 04:50:55;;;;;;;6.05;3.33;;;10.40;99.90;;;;;;6288199;22;20023;-79
2021/09/29 04:53:24;;;;;;;5.25;2.30;;;10.40;99.90;;;;;;6287232;22;20014;-79
2021/09/29 04:55:58;;;;;;;5.85;2.13;;;10.30;99.90;;;;;;6235209;22;20342;-79
2021/09/29 04:58:27;;;;;;;4.05;2.70;;;10.30;99.90;;;;;;6264862;22;20011;-79
2021/09/29 05:00:55;;;;;;;3.10;1.90;;;10.30;99.90;;;;;;6297834;22;20024;-80
2021/09/29 05:03:33;;;;;;;5.72;2.35;;;10.20;99.90;;;;;;6261845;22;20022;-79
2021/09/29 05:06:01;;;;;;;4.00;2.20;;;10.20;99.90;;;;;;6260425;22;20033;-80
2021/09/29 05:08:33;;;;;;;8.70;2.58;;;10.20;99.90;;;;;;6288908;22;20012;-81
2021/09/29 05:11:14;;;;;;;5.22;2.03;;;10.10;99.90;;;;;;6262244;22;20020;-79
2021/09/29 05:13:43;;;;;;;3.83;2.03;;;10.10;99.90;;;;;;6288967;22;20018;-80
2021/09/29 05:16:11;;;;;;;10.10;2.72;;;10.10;99.90;;;;;;6284353;22;20029;-81
2021/09/29 05:18:39;;;;;;;11.65;3.92;;;10.10;99.90;;;;;;6287808;22;20012;-78
2021/09/29 05:21:07;;;;;;;6.28;1.75;;;10.10;99.90;;;;;;6297551;22;20020;-78
2021/09/29 05:23:36;;;;;;;5.80;2.58;;;10.00;99.90;;;;;;6289577;22;20677;-77
2021/09/29 05:26:04;;;;;;;4.95;2.33;;;10.00;99.90;;;;;;6260518;22;20024;-79
2021/09/29 05:28:42;;;;;;;2.55;1.90;;;10.00;99.90;;;;;;6284053;22;20019;-80
2021/09/29 05:31:10;;;;;;;5.40;2.05;;;9.90;99.90;;;;;;6258349;22;20020;-79
2021/09/29 05:33:39;;;;;;;7.63;2.85;;;9.90;99.90;;;;;;6288217;22;20016;-80
2021/09/29 05:36:07;;;;;;;5.80;2.03;;;9.80;99.90;;;;;;6287146;22;20352;-79
2021/09/29 05:38:38;;;;;;;4.35;2.03;;;9.90;99.90;;;;;;6297795;22;20020;-79
2021/09/29 05:41:28;;;;;;;10.32;2.60;;;9.80;99.90;;;;;;6235211;22;20026;-78
2021/09/29 05:43:56;;;;;;;6.85;1.90;;;9.80;99.90;;;;;;6233744;22;20031;-79
2021/09/29 05:46:24;;;;;;;6.72;2.88;;;9.80;99.90;;;;;;6259223;22;20016;-81
2021/09/29 05:48:52;;;;;;;6.10;2.33;;;9.70;99.90;;;;;;6286307;22;20016;-79
2021/09/29 05:51:22;;;;;;;3.65;2.00;;;9.70;99.90;;;;;;6259299;22;20019;-79
2021/09/29 05:53:50;;;;;;;10.93;2.15;;;9.70;99.90;;;;;;6293219;22;20015;-80
2021/09/29 05:56:21;;;;;;;7.07;2.10;;;9.70;99.90;;;;;;6286223;22;20015;-80
2021/09/29 05:58:53;;;;;;;6.05;2.08;;;9.70;99.90;;;;;;6259262;22;20031;-80
2021/09/29 06:01:21;;;;;;;5.38;2.10;;;9.60;99.90;;;;;;6283830;22;20029;-80
2021/09/29 06:03:49;;;;;;;3.15;1.80;;;9.70;99.90;;;;;;6284686;22;20024;-78
2021/09/29 06:06:17;;;;;;;8.57;2.70;;;9.60;99.90;;;;;;6286235;22;20016;-80
2021/09/29 06:08:47;;;;;;;4.85;2.10;;;9.60;99.90;;;;;;6259694;22;20032;-80
2021/09/29 06:11:14;;;;;;;6.13;2.38;;;9.50;99.90;;;;;;6297212;22;20020;-79
2021/09/29 06:13:43;;;;;;;7.20;2.15;;;9.50;99.90;;;;;;6288230;22;20022;-79
2021/09/29 06:16:11;;;;;;;8.10;2.00;;;9.50;99.90;;;;;;6257679;22;20030;-83
2021/09/29 06:18:39;;;;;;;6.25;3.00;;;9.50;99.90;;;;;;6257669;22;20024;-80
2021/09/29 06:21:08;;;;;;;6.15;2.50;;;9.50;99.90;;;;;;6295457;22;20030;-80
2021/09/29 06:23:38;;;;;;;3.22;1.98;;;9.70;99.90;;;;;;6260458;22;20018;-77
2021/09/29 06:26:07;;;;;;;5.38;2.45;;;9.50;99.90;;;;;;6259181;22;20023;-81
2021/09/29 06:28:38;;;;;;;8.50;3.05;;;9.50;99.90;;;;;;6257838;22;20034;-80
2021/09/29 06:31:10;;;;;;;2.33;2.07;;;9.50;99.90;;;;;;6295499;22;20018;-81
2021/09/29 06:33:39;;;;;;;5.22;2.97;;;9.50;99.90;;;;;;6296507;22;20019;-81
2021/09/29 06:36:07;;;;;;;16.73;3.15;;;9.60;99.90;;;;;;6234658;22;20018;-80
2021/09/29 06:38:35;;;;;;;5.75;2.03;;;9.50;99.90;;;;;;6259603;22;20016;-79
2021/09/29 06:41:03;;;;;;;3.60;1.83;;;9.50;99.90;;;;;;6258906;22;20023;-78
2021/09/29 06:43:32;;;;;;;8.32;3.85;;;9.50;99.90;;;;;;6283553;22;20016;-78
2021/09/29 06:46:12;;;;;;;6.47;2.25;;;9.50;99.90;;;;;;6285292;22;20011;-80
2021/09/29 06:48:44;;;;;;;10.32;2.83;;;9.50;99.90;;;;;;6289508;22;20326;-82
2021/09/29 06:51:15;;;;;;;5.70;2.03;;;9.50;99.90;;;;;;6287845;22;20330;-78
2021/09/29 06:53:43;;;;;;;4.63;2.00;;;9.50;99.90;;;;;;6261656;22;20016;-81
2021/09/29 06:56:13;;;;;;;14.48;6.45;;;9.50;99.90;;;;;;6271242;22;20023;-81
2021/09/29 06:59:08;;;;;;;6.05;2.47;;;9.50;99.90;;;;;;6238121;22;20016;-81
2021/09/29 07:01:45;;;;;;;5.60;2.35;;;9.50;99.90;;;;;;6286825;22;20022;-79
2021/09/29 07:04:39;;;;;;;5.93;2.43;;;9.60;99.90;;;;;;6289510;22;20012;-80
2021/09/29 07:07:23;;;;;;;14.10;2.10;;;9.60;99.90;;;;;;6277705;22;20049;-84
2021/09/29 07:10:03;;;;;;;5.15;2.05;;;9.60;99.90;;;;;;6265211;22;20053;-81
2021/09/29 07:12:35;;;;;;;6.63;2.25;;;9.70;99.90;;;;;;6298446;22;20023;-82
2021/09/29 07:15:11;;;;;;;3.83;2.03;;;9.80;99.90;;;;;;6297409;22;20031;-84
2021/09/29 07:17:45;;;;;;;6.95;1.83;;;9.70;99.90;;;;;;6271951;22;20016;-83
2021/09/29 07:20:18;;;;;;;5.47;2.47;;;9.70;99.90;;;;;;6286499;22;20022;-88
2021/09/29 07:23:08;;;;;;;9.82;2.20;;;9.80;99.90;;;;;;6288244;22;20039;-80
2021/09/29 07:25:53;;;;;;;2.38;1.60;;;9.90;99.90;;;;;;6266197;22;20016;-81
2021/09/29 07:29:12;;;;;;;5.13;2.05;;;9.90;99.90;;;;;;6250983;22;20020;-89
2021/09/29 07:31:43;;;;;;;9.77;2.15;;;9.90;99.90;;;;;;6290518;22;20024;-83
2021/09/29 07:34:46;;;;;;;8.55;2.90;;;10.00;99.90;;;;;;6302248;22;20015;-86
2021/09/29 07:37:47;;;;;;;6.57;2.50;;;10.00;99.90;;;;;;6261099;22;20015;-84
2021/09/29 07:40:54;;;;;;;9.75;2.05;;;10.10;99.90;;;;;;6269893;22;20024;-81
2021/09/29 07:43:34;;;;;;;9.05;2.10;;;10.10;99.90;;;;;;6290509;22;20024;-80
2021/09/29 07:46:07;;;;;;;5.15;1.95;;;10.10;99.90;;;;;;6271666;22;20023;-81
2021/09/29 07:48:37;;;;;;;7.60;2.10;;;10.20;99.90;;;;;;6298399;22;20023;-87
2021/09/29 07:51:16;;;;;;;5.57;2.13;;;10.30;99.90;;;;;;6261482;22;20030;-80
2021/09/29 07:53:47;;;;;;;6.07;2.50;;;10.30;99.90;;;;;;6273276;22;20345;-81
2021/09/29 07:56:25;;;;;;;5.35;1.70;;;10.40;99.90;;;;;;6291145;22;20321;-84
2021/09/29 08:02:33;;;;;;;;;;;;;;;;;;;;;
2021/09/29 08:05:56;;;;;;;;;;;;;;;;;;;;;
2021/09/29 08:08:35;;;;;;;9.27;2.08;;;10.60;99.90;;;;;;6301234;22;20015;-82
2021/09/29 08:11:10;;;;;;;3.95;2.30;;;10.70;99.90;;;;;;6237698;22;20213;-84
2021/09/29 08:14:27;;;;;;;14.20;2.85;;;10.60;99.90;;;;;;6288690;22;20026;-82
2021/09/29 08:17:17;;;;;;;3.17;2.38;;;10.80;99.90;;;;;;6262400;22;20016;-82
2021/09/29 08:20:20;;;;;;;4.78;1.60;;;10.80;99.90;;;;;;6271220;22;20016;-82
2021/09/29 08:23:10;;;;;;;3.88;2.55;;;10.80;99.90;;;;;;6285837;22;20030;-83
2021/09/29 08:28:39;;;;;;;4.65;1.77;;;11.00;99.90;;;;;;6287088;22;20211;-82
2021/09/29 08:31:20;;;;;;;3.47;1.70;;;11.00;99.90;;;;;;6260857;22;20026;-84
2021/09/29 08:34:17;;;;;;;5.60;2.05;;;11.10;99.90;;;;;;6286948;22;20019;-82
2021/09/29 08:37:02;;;;;;;4.95;1.50;;;11.10;99.90;;;;;;6288892;22;20158;-81
2021/09/29 08:39:44;;;;;;;7.32;1.65;;;11.20;99.90;;;;;;6264872;22;20023;-82
2021/09/29 08:44:53;;;;;;;9.30;3.25;;;11.30;99.90;;;;;;6290455;22;20472;-83
2021/09/29 08:50:23;;;;;;;3.22;1.50;;;11.40;99.90;;;;;;6287255;22;20024;-83
2021/09/29 09:19:28;;;;;;;;;;;;;;;;;;;;;
2021/09/29 09:26:29;;;;;;;4.70;1.50;;;13.30;99.90;;;;;;6218896;23;20024;-83
2021/09/29 09:29:34;;;;;;;2.35;1.30;;;12.50;99.90;;;;;;6258153;22;20029;-84
2021/09/29 09:32:55;;;;;;;;;;;;;;;;;;;;;
2021/09/29 09:36:07;;;;;;;6.38;1.77;;;12.50;99.90;;;;;;6322226;22;20011;-82
2021/09/29 09:39:00;;;;;;;9.43;1.73;;;12.50;99.90;;;;;;6352285;22;20015;-83
2021/09/29 09:49:39;;;;;;;;;;;;;;;;;;;;;
2021/09/29 09:52:27;;;;;;;6.15;1.73;;;12.70;99.90;;;;;;6322412;22;20381;-83
2021/09/29 09:55:26;;;;;;;4.40;1.30;;;12.80;99.90;;;;;;6323410;22;20022;-83
2021/09/29 09:58:34;;;;;;;7.60;1.30;;;12.90;99.90;;;;;;6262819;22;20249;-85
2021/09/29 10:01:41;;;;;;;7.30;1.77;;;13.00;99.90;;;;;;6275648;22;20016;-85
2021/09/29 10:04:38;;;;;;;6.95;1.50;;;12.90;99.90;;;;;;6289447;22;20428;-82
2021/09/29 10:07:38;;;;;;;4.50;1.48;;;13.40;99.90;;;;;;6281808;22;20024;-82
2021/09/29 10:27:36;;;;;;;6.87;1.73;;;13.50;99.90;;;;;;6259410;22;20015;-85
2021/09/29 10:46:20;;;;;;;;;;;;;;;;;;;;;
2021/09/29 11:31:14;;;;;;;3.15;1.05;;;14.60;97.10;;;;;;6173229;23;20022;-82
2021/09/29 11:37:17;;;;;;;6.93;1.17;;;14.80;96.60;;;;;;6120672;23;20028;-83
2021/09/29 12:08:53;;;;;;;5.53;1.65;;;14.90;94.00;;;;;;6135921;23;20712;-82
2021/09/29 12:11:39;;;;;;;4.50;1.83;;;15.00;94.40;;;;;;6137040;23;20032;-84
2021/09/29 12:14:33;;;;;;;;;;;;;;;;;;;;;
2021/09/29 12:17:27;;;;;;;5.57;1.20;;;15.10;94.00;;;;;;6134275;23;20025;-86
2021/09/29 12:20:31;;;;;;;5.18;1.60;;;15.10;94.00;;;;;;6134885;23;20014;-82
2021/09/29 12:23:10;;;;;;;4.45;1.10;;;15.20;94.30;;;;;;6088039;23;20026;-82
2021/09/29 12:26:02;;;;;;;3.38;1.10;;;15.30;94.90;;;;;;6134265;23;20347;-80
2021/09/29 12:29:53;;;;;;;11.32;1.50;;;15.30;94.00;;;;;;6127407;23;20036;-82
2021/09/29 12:32:48;;;;;;;3.95;1.00;;;14.90;93.60;;;;;;6108204;23;20021;-84
2021/09/29 12:38:20;;;;;;;2.67;1.02;;;15.50;93.60;;;;;;6158113;23;20025;-83
2021/09/29 12:41:14;;;;;;;2.53;0.88;;;15.50;93.70;;;;;;6113240;23;20550;-83
2021/09/29 12:44:44;;;;;;;2.03;1.38;;;15.50;93.70;;;;;;6138182;23;20350;-85
2021/09/29 12:47:51;;;;;;;5.65;1.98;;;15.50;93.30;;;;;;6174978;23;20018;-85
2021/09/29 12:54:55;;;;;;;6.78;1.88;;;15.90;93.80;;;;;;6376505;22;20013;-81
2021/09/29 13:02:07;;;;;;;5.13;1.00;;;15.30;92.90;;;;;;6394807;22;20021;-83
2021/09/29 13:05:47;;;;;;;;;;;;;;;;;;;;;
2021/09/29 13:09:57;;;;;;;;;;;;;;;;;;;;;
2021/09/29 13:13:41;;;;;;;;;;;;;;;;;;;;;
2021/09/29 13:18:24;;;;;;;;;;;;;;;;;;;;;
2021/09/29 13:21:33;;;;;;;5.68;1.10;;;15.40;91.90;;;;;;6265937;22;20016;-83
2021/09/29 13:25:19;;;;;;;1.15;0.80;;;14.20;91.50;;;;;;6190206;23;20039;-82
2021/09/29 13:38:22;;;;;;;;;;;;;;;;;;;;;
2021/09/29 13:40:51;;;;;;;2.78;1.38;;;15.10;92.80;;;;;;6317329;22;20354;-81
2021/09/29 13:43:23;;;;;;;5.15;1.25;;;14.90;92.30;;;;;;6296776;22;20019;-79
2021/09/29 13:46:49;;;;;;;2.42;1.00;;;15.00;92.20;;;;;;6287821;22;20461;-84
2021/09/29 13:49:49;;;;;;;3.17;0.82;;;15.10;92.70;;;;;;6242321;22;20037;-82
2021/09/29 13:52:40;;;;;;;3.00;1.00;;;15.20;92.60;;;;;;6340288;22;20401;-83
2021/09/29 13:55:25;;;;;;;6.60;1.08;;;15.50;91.50;;;;;;6357342;22;20025;-83
2021/09/29 14:30:43;;;;;;;2.90;1.27;;;16.60;90.20;;;;;;6269885;22;20532;-83
2021/09/29 14:37:15;;;;;;;3.35;0.95;;;16.70;89.10;;;;;;6251113;22;20019;-82
2021/09/29 14:40:09;;;;;;;5.25;1.35;;;15.80;90.20;;;;;;6281816;22;20019;-86
2021/09/29 14:43:33;;;;;;;3.47;1.10;;;16.50;90.20;;;;;;6261456;22;20031;-85
2021/09/29 14:46:09;;;;;;;4.57;1.33;;;16.60;91.00;;;;;;6282047;22;20023;-84
2021/09/29 14:48:58;;;;;;;1.65;0.65;;;16.80;90.10;;;;;;6294526;22;20351;-82
2021/09/29 14:51:37;;;;;;;11.07;1.70;;;16.80;90.10;;;;;;6384474;22;20022;-81
2021/09/29 14:54:10;;;;;;;;;;;17.00;89.10;;;;;;6302198;22;20019;-83
2021/09/29 14:57:09;;;;;;;;;;;;;;;;;;;;;
2021/09/29 15:01:14;;;;;;;4.55;0.88;;;17.30;87.10;;;;;;6341330;22;20010;-86
2021/09/29 15:04:45;;;;;;;7.22;0.98;;;17.60;85.40;;;;;;6344921;22;20045;-81
2021/09/29 15:08:02;;;;;;;6.97;1.20;;;17.30;83.60;;;;;;6307957;22;20022;-82
2021/09/29 15:16:07;;;;;;;7.95;0.90;;;18.80;81.10;;;;;;6096148;23;20029;-87
2021/09/29 15:23:34;;;;;;;;;;;;;;;;;;;;;
2021/09/29 15:27:42;;;;;;;3.83;1.23;;;16.10;84.00;;;;;;6103290;23;20021;-88
2021/09/29 15:47:00;;;;;;;6.35;1.52;;;18.90;88.80;;;;;;6323260;22;20023;-82
2021/09/29 15:49:47;;;;;;;3.13;0.90;;;19.20;88.30;;;;;;6296508;22;20016;-82
2021/09/29 16:01:24;;;;;;;;;;;;;;;;;;;;;
2021/09/29 16:06:10;;;;;;;6.75;0.95;;;20.00;87.40;;;;;;6129704;23;20009;-84
2021/09/29 16:37:43;;;;;;;;;;;;;;;;;;;;;
2021/09/29 16:41:25;;;;;;;8.90;2.08;;;16.20;91.10;;;;;;6210821;23;20019;-84
2021/09/29 16:44:35;;;;;;;6.28;1.75;;;15.90;90.60;;;;;;6152192;23;20057;-83
2021/09/29 16:47:55;;;;;;;5.95;1.90;;;16.90;90.70;;;;;;6199456;23;20039;-81
2021/09/29 16:51:44;;;;;;;6.00;1.52;;;15.60;90.80;;;;;;6148495;23;20027;-83
2021/09/29 16:54:53;;;;;;;2.58;1.40;;;15.50;91.30;;;;;;6187982;23;20025;-84
2021/09/29 16:58:00;;;;;;;;;;;;;;;;;;;;;
2021/09/29 17:01:13;;;;;;;4.05;1.50;;;15.30;91.50;;;;;;6161207;23;20035;-88
2021/09/29 17:04:07;;;;;;;6.10;1.52;;;15.20;90.80;;;;;;6236248;23;20020;-86
2021/09/29 17:07:14;;;;;;;6.22;1.45;;;14.90;91.50;;;;;;6229147;23;20004;-83
2021/09/29 17:18:36;;;;;;;4.40;2.38;;;14.50;89.80;;;;;;6216618;23;20016;-89
2021/09/29 17:21:24;;;;;;;8.18;2.03;;;14.50;90.10;;;;;;6229770;23;20009;-83
2021/09/29 17:24:04;;;;;;;3.25;1.50;;;14.30;90.10;;;;;;6205486;23;20024;-83
2021/09/29 17:27:20;;;;;;;1.95;1.27;;;14.30;89.50;;;;;;6244048;23;20015;-84
2021/09/29 17:30:02;;;;;;;4.80;1.38;;;14.20;90.00;;;;;;6230852;23;20047;-81
2021/09/29 17:36:14;;;;;;;5.18;1.92;;;14.00;90.10;;;;;;6204094;22;20021;-84
2021/09/29 17:39:36;;;;;;;12.57;3.08;;;14.00;90.50;;;;;;6325748;22;20014;-85
2021/09/29 18:01:31;;;;;;;10.02;1.85;;;13.40;91.50;;;;;;6348806;22;20025;-84
2021/09/29 18:04:40;;;;;;;5.95;2.65;;;12.90;91.90;;;;;;6326286;22;20023;-83
2021/09/29 18:08:08;;;;;;;9.52;1.83;;;13.20;92.20;;;;;;6330077;22;20029;-84
2021/09/29 18:11:56;;;;;;;10.55;2.90;;;13.20;92.30;;;;;;6327658;22;20025;-84
2021/09/29 18:15:19;;;;;;;11.02;3.45;;;13.00;93.70;;;;;;6296634;22;20025;-87
2021/09/29 18:28:40;;;;;;;;;;;;;;;;;;;;;
2021/09/29 18:31:19;;;;;;;9.25;2.70;;;12.60;94.30;;;;;;5907204;24;20019;-84
2021/09/29 18:34:15;;;;;;;;;;;12.50;94.00;;;;;;5994936;24;20035;-85
2021/09/29 18:37:58;;;;;;;13.23;4.00;;;12.40;94.50;;;;;;6024666;23;19925;-84
2021/09/29 18:40:50;;;;;;;12.18;3.90;;;12.40;94.30;;;;;;6260527;22;20015;-87
2021/09/29 18:44:04;;;;;;;5.22;2.50;;;12.20;94.20;;;;;;6307076;22;20361;-83
2021/09/29 18:48:03;;;;;;;;;;;;;;;;;;;;;
2021/09/29 18:55:25;;;;;;;8.30;2.25;;;12.00;94.80;;;;;;4873915;27;6095778;-86
2021/09/29 19:04:06;;;;;;;7.60;3.10;;;12.10;94.80;;;;;;5056591;28;20041;-87
2021/09/29 19:09:25;;;;;;;5.57;2.25;;;12.10;95.00;;;;;;5049969;28;20049;-87
2021/09/29 19:11:54;;;;;;;9.27;2.33;;;12.10;95.10;;;;;;5033058;28;20045;-85
2021/09/29 19:14:24;;;;;;;4.97;2.03;;;12.00;95.20;;;;;;5028604;28;20068;-89
2021/09/29 19:16:58;;;;;;;6.13;2.47;;;12.00;95.50;;;;;;5048048;28;20049;-88
2021/09/29 19:19:28;;;;;;;12.50;4.50;;;11.90;95.80;;;;;;5054128;28;20060;-84
2021/09/29 19:22:04;;;;;;;10.80;3.63;;;11.90;96.40;;;;;;5064128;28;20056;-85
2021/09/29 19:24:33;;;;;;;10.23;3.38;;;11.80;96.10;;;;;;5033207;28;20064;-85
2021/09/29 19:27:02;;;;;;;8.50;4.32;;;11.70;96.30;;;;;;5055252;28;20041;-86
2021/09/29 19:29:33;;;;;;;9.68;3.47;;;11.70;96.80;;;;;;5033384;28;20049;-87
2021/09/29 19:32:11;;;;;;;9.15;3.95;;;11.70;96.60;;;;;;5030892;28;20045;-89
2021/09/29 19:34:52;;;;;;;8.45;4.03;;;11.70;96.70;;;;;;5039713;28;20045;-87
2021/09/29 19:37:24;;;;;;;7.78;3.22;;;11.60;96.70;;;;;;5058043;28;20041;-87
2021/09/29 19:39:53;;;;;;;8.48;3.60;;;11.60;96.90;;;;;;5053001;28;20057;-86
2021/09/29 19:42:21;;;;;;;10.27;4.07;;;11.50;97.10;;;;;;5047276;28;20057;-86
2021/09/29 19:45:03;;;;;;;15.15;5.50;;;12.00;97.60;;;;;;5038554;28;20052;-85
2021/09/29 20:09:43;;;;;;;11.02;3.47;;;11.20;97.50;;;;;;5044457;28;20052;-85
2021/09/29 20:12:35;;;;;;;10.60;3.92;;;11.20;97.40;;;;;;5033102;28;20065;-86
2021/09/29 20:15:24;;;;;;;8.98;3.45;;;11.20;97.60;;;;;;5042472;28;20896;-84
2021/09/29 20:18:01;;;;;;;8.07;3.45;;;11.20;97.60;;;;;;5044273;28;20125;-88
2021/09/29 20:20:37;;;;;;;10.77;3.95;;;11.20;97.40;;;;;;5030033;28;20054;-85
2021/09/29 20:23:09;;;;;;;10.18;4.03;;;11.20;97.60;;;;;;5057110;28;20052;-89
2021/09/29 20:25:52;;;;;;;14.43;3.70;;;11.10;97.70;;;;;;5031192;28;20057;-86
2021/09/29 20:28:23;;;;;;;;;;;11.10;97.50;;;;;;5027421;28;20045;-90
2021/09/29 20:30:56;;;;;;;9.57;3.25;;;11.00;97.80;;;;;;5048420;28;19925;-87